sensor_id;sensor_type;location;lat;lon;timestamp;P1;durP1;ratioP1;P2;durP2;ratioP2
30048;SDS011;16879;50.852;15.602;2023-04-25T00:00:46;5.50;;;3.90;;
30048;SDS011;16879;50.852;15.602;2023-04-25T00:03:12;4.78;;;3.80;;
30048;SDS011;16879;50.852;15.602;2023-04-25T00:05:38;7.30;;;4.43;;
30048;SDS011;16879;50.852;15.602;2023-04-25T00:08:05;6.85;;;4.07;;
30048;SDS011;16879;50.852;15.602;2023-04-25T00:10:34;5.82;;;4.18;;
30048;SDS011;16879;50.852;15.602;2023-04-25T00:13:00;9.95;;;5.00;;
30048;SDS011;16879;50.852;15.602;2023-04-25T00:15:27;6.57;;;4.78;;
30048;SDS011;16879;50.852;15.602;2023-04-25T00:17:56;4.28;;;3.88;;
30048;SDS011;16879;50.852;15.602;2023-04-25T00:20:22;6.25;;;4.10;;
30048;SDS011;16879;50.852;15.602;2023-04-25T00:22:50;8.52;;;5.72;;
30048;SDS011;16879;50.852;15.602;2023-04-25T00:25:18;6.60;;;3.88;;
30048;SDS011;16879;50.852;15.602;2023-04-25T00:27:44;4.30;;;3.90;;
30048;SDS011;16879;50.852;15.602;2023-04-25T00:30:22;6.18;;;3.90;;
30048;SDS011;16879;50.852;15.602;2023-04-25T00:32:48;4.78;;;4.28;;
30048;SDS011;16879;50.852;15.602;2023-04-25T00:35:23;6.78;;;4.05;;
30048;SDS011;16879;50.852;15.602;2023-04-25T00:37:50;3.80;;;3.40;;
30048;SDS011;16879;50.852;15.602;2023-04-25T00:40:16;5.28;;;3.60;;
30048;SDS011;16879;50.852;15.602;2023-04-25T00:42:52;8.32;;;4.45;;
30048;SDS011;16879;50.852;15.602;2023-04-25T00:45:18;7.65;;;3.25;;
30048;SDS011;16879;50.852;15.602;2023-04-25T00:47:47;6.38;;;3.47;;
30048;SDS011;16879;50.852;15.602;2023-04-25T00:50:14;5.60;;;3.80;;
30048;SDS011;16879;50.852;15.602;2023-04-25T00:52:41;4.53;;;3.78;;
30048;SDS011;16879;50.852;15.602;2023-04-25T00:55:18;7.43;;;4.07;;
30048;SDS011;16879;50.852;15.602;2023-04-25T00:57:51;7.97;;;3.75;;
30048;SDS011;16879;50.852;15.602;2023-04-25T01:00:23;7.57;;;3.88;;
30048;SDS011;16879;50.852;15.602;2023-04-25T01:02:55;6.10;;;4.05;;
30048;SDS011;16879;50.852;15.602;2023-04-25T01:05:25;7.07;;;3.55;;
30048;SDS011;16879;50.852;15.602;2023-04-25T01:07:57;5.97;;;3.85;;
30048;SDS011;16879;50.852;15.602;2023-04-25T01:10:24;4.77;;;3.53;;
30048;SDS011;16879;50.852;15.602;2023-04-25T01:12:50;4.30;;;3.10;;
30048;SDS011;16879;50.852;15.602;2023-04-25T01:15:16;5.60;;;3.08;;
30048;SDS011;16879;50.852;15.602;2023-04-25T01:17:42;4.97;;;3.75;;
30048;SDS011;16879;50.852;15.602;2023-04-25T01:20:09;4.45;;;3.33;;
30048;SDS011;16879;50.852;15.602;2023-04-25T01:22:38;5.80;;;4.57;;
30048;SDS011;16879;50.852;15.602;2023-04-25T01:25:14;3.70;;;3.35;;
30048;SDS011;16879;50.852;15.602;2023-04-25T01:27:40;7.47;;;4.03;;
30048;SDS011;16879;50.852;15.602;2023-04-25T01:30:06;9.57;;;4.30;;
30048;SDS011;16879;50.852;15.602;2023-04-25T01:32:33;5.07;;;4.57;;
30048;SDS011;16879;50.852;15.602;2023-04-25T01:35:06;4.20;;;3.40;;
30048;SDS011;16879;50.852;15.602;2023-04-25T01:37:38;6.40;;;3.97;;
30048;SDS011;16879;50.852;15.602;2023-04-25T01:40:04;8.55;;;4.00;;
30048;SDS011;16879;50.852;15.602;2023-04-25T01:42:34;7.10;;;3.80;;
30048;SDS011;16879;50.852;15.602;2023-04-25T01:45:01;4.38;;;3.88;;
30048;SDS011;16879;50.852;15.602;2023-04-25T01:47:27;6.82;;;4.13;;
30048;SDS011;16879;50.852;15.602;2023-04-25T01:49:54;3.75;;;3.20;;
30048;SDS011;16879;50.852;15.602;2023-04-25T01:52:20;5.68;;;3.97;;
30048;SDS011;16879;50.852;15.602;2023-04-25T01:54:57;4.95;;;3.65;;
30048;SDS011;16879;50.852;15.602;2023-04-25T01:57:26;7.32;;;4.05;;
30048;SDS011;16879;50.852;15.602;2023-04-25T01:59:59;4.82;;;4.35;;
30048;SDS011;16879;50.852;15.602;2023-04-25T02:02:26;6.45;;;4.03;;
30048;SDS011;16879;50.852;15.602;2023-04-25T02:04:52;6.60;;;4.65;;
30048;SDS011;16879;50.852;15.602;2023-04-25T02:07:19;7.65;;;4.47;;
30048;SDS011;16879;50.852;15.602;2023-04-25T02:09:51;6.93;;;5.90;;
30048;SDS011;16879;50.852;15.602;2023-04-25T02:12:21;8.15;;;4.78;;
30048;SDS011;16879;50.852;15.602;2023-04-25T02:14:50;6.72;;;4.78;;
30048;SDS011;16879;50.852;15.602;2023-04-25T02:17:23;5.40;;;4.78;;
30048;SDS011;16879;50.852;15.602;2023-04-25T02:22:28;8.07;;;4.25;;
30048;SDS011;16879;50.852;15.602;2023-04-25T02:24:55;4.63;;;3.95;;
30048;SDS011;16879;50.852;15.602;2023-04-25T02:27:21;3.65;;;3.35;;
30048;SDS011;16879;50.852;15.602;2023-04-25T02:29:47;4.03;;;3.55;;
30048;SDS011;16879;50.852;15.602;2023-04-25T02:32:14;4.57;;;3.80;;
30048;SDS011;16879;50.852;15.602;2023-04-25T02:34:40;5.55;;;4.57;;
30048;SDS011;16879;50.852;15.602;2023-04-25T02:37:09;4.80;;;3.63;;
30048;SDS011;16879;50.852;15.602;2023-04-25T02:39:36;5.53;;;3.78;;
30048;SDS011;16879;50.852;15.602;2023-04-25T02:42:19;9.15;;;4.10;;
30048;SDS011;16879;50.852;15.602;2023-04-25T02:44:45;7.00;;;3.60;;
30048;SDS011;16879;50.852;15.602;2023-04-25T02:47:23;7.53;;;3.70;;
30048;SDS011;16879;50.852;15.602;2023-04-25T02:49:49;4.93;;;3.95;;
30048;SDS011;16879;50.852;15.602;2023-04-25T02:52:16;6.22;;;4.00;;
30048;SDS011;16879;50.852;15.602;2023-04-25T02:54:42;4.88;;;3.88;;
30048;SDS011;16879;50.852;15.602;2023-04-25T02:57:08;8.27;;;4.97;;
30048;SDS011;16879;50.852;15.602;2023-04-25T02:59:34;16.77;;;6.40;;
30048;SDS011;16879;50.852;15.602;2023-04-25T03:02:01;6.47;;;4.25;;
30048;SDS011;16879;50.852;15.602;2023-04-25T03:04:27;6.35;;;3.80;;
30048;SDS011;16879;50.852;15.602;2023-04-25T03:06:53;4.22;;;3.92;;
30048;SDS011;16879;50.852;15.602;2023-04-25T03:09:20;5.40;;;3.38;;
30048;SDS011;16879;50.852;15.602;2023-04-25T03:11:46;4.78;;;4.05;;
30048;SDS011;16879;50.852;15.602;2023-04-25T03:14:12;5.75;;;3.45;;
30048;SDS011;16879;50.852;15.602;2023-04-25T03:16:39;5.50;;;3.90;;
30048;SDS011;16879;50.852;15.602;2023-04-25T03:19:05;5.03;;;4.07;;
30048;SDS011;16879;50.852;15.602;2023-04-25T03:21:37;7.32;;;4.07;;
30048;SDS011;16879;50.852;15.602;2023-04-25T03:24:06;5.97;;;3.53;;
30048;SDS011;16879;50.852;15.602;2023-04-25T03:26:42;5.45;;;4.63;;
30048;SDS011;16879;50.852;15.602;2023-04-25T03:29:08;7.00;;;4.60;;
30048;SDS011;16879;50.852;15.602;2023-04-25T03:31:36;7.45;;;4.90;;
30048;SDS011;16879;50.852;15.602;2023-04-25T03:34:03;4.90;;;4.15;;
30048;SDS011;16879;50.852;15.602;2023-04-25T03:36:29;5.45;;;3.58;;
30048;SDS011;16879;50.852;15.602;2023-04-25T03:38:58;6.93;;;4.30;;
30048;SDS011;16879;50.852;15.602;2023-04-25T03:41:27;7.03;;;4.90;;
30048;SDS011;16879;50.852;15.602;2023-04-25T03:43:54;11.10;;;6.32;;
30048;SDS011;16879;50.852;15.602;2023-04-25T03:46:21;23.33;;;11.63;;
30048;SDS011;16879;50.852;15.602;2023-04-25T03:48:56;10.57;;;7.80;;
30048;SDS011;16879;50.852;15.602;2023-04-25T03:51:22;11.07;;;6.70;;
30048;SDS011;16879;50.852;15.602;2023-04-25T03:53:49;6.63;;;4.47;;
30048;SDS011;16879;50.852;15.602;2023-04-25T03:56:15;7.03;;;5.20;;
30048;SDS011;16879;50.852;15.602;2023-04-25T03:58:49;6.93;;;5.25;;
30048;SDS011;16879;50.852;15.602;2023-04-25T04:01:15;6.93;;;5.30;;
30048;SDS011;16879;50.852;15.602;2023-04-25T04:03:47;9.60;;;5.20;;
30048;SDS011;16879;50.852;15.602;2023-04-25T04:06:20;7.65;;;5.43;;
30048;SDS011;16879;50.852;15.602;2023-04-25T04:08:46;11.07;;;6.03;;
30048;SDS011;16879;50.852;15.602;2023-04-25T04:11:15;7.55;;;5.38;;
30048;SDS011;16879;50.852;15.602;2023-04-25T04:13:45;6.30;;;4.50;;
30048;SDS011;16879;50.852;15.602;2023-04-25T04:16:11;5.40;;;4.72;;
30048;SDS011;16879;50.852;15.602;2023-04-25T04:18:45;6.65;;;5.05;;
30048;SDS011;16879;50.852;15.602;2023-04-25T04:21:17;5.88;;;4.70;;
30048;SDS011;16879;50.852;15.602;2023-04-25T04:23:47;5.30;;;4.35;;
30048;SDS011;16879;50.852;15.602;2023-04-25T04:26:21;9.18;;;5.57;;
30048;SDS011;16879;50.852;15.602;2023-04-25T04:28:51;6.15;;;4.90;;
30048;SDS011;16879;50.852;15.602;2023-04-25T04:31:19;6.47;;;4.72;;
30048;SDS011;16879;50.852;15.602;2023-04-25T04:33:55;6.63;;;4.93;;
30048;SDS011;16879;50.852;15.602;2023-04-25T04:36:21;5.93;;;4.30;;
30048;SDS011;16879;50.852;15.602;2023-04-25T04:38:48;5.32;;;4.22;;
30048;SDS011;16879;50.852;15.602;2023-04-25T04:41:15;8.18;;;5.40;;
30048;SDS011;16879;50.852;15.602;2023-04-25T04:43:41;7.07;;;4.65;;
30048;SDS011;16879;50.852;15.602;2023-04-25T04:46:08;10.20;;;5.88;;
30048;SDS011;16879;50.852;15.602;2023-04-25T04:48:35;11.82;;;6.50;;
30048;SDS011;16879;50.852;15.602;2023-04-25T04:51:01;10.95;;;6.35;;
30048;SDS011;16879;50.852;15.602;2023-04-25T04:53:29;27.77;;;8.23;;
30048;SDS011;16879;50.852;15.602;2023-04-25T04:55:58;21.20;;;9.13;;
30048;SDS011;16879;50.852;15.602;2023-04-25T04:58:25;14.32;;;7.65;;
30048;SDS011;16879;50.852;15.602;2023-04-25T05:01:01;6.95;;;5.55;;
30048;SDS011;16879;50.852;15.602;2023-04-25T05:03:27;8.95;;;5.18;;
30048;SDS011;16879;50.852;15.602;2023-04-25T05:05:56;8.70;;;5.00;;
30048;SDS011;16879;50.852;15.602;2023-04-25T05:08:27;8.32;;;5.15;;
30048;SDS011;16879;50.852;15.602;2023-04-25T05:10:53;14.93;;;7.85;;
30048;SDS011;16879;50.852;15.602;2023-04-25T05:13:22;18.77;;;9.43;;
30048;SDS011;16879;50.852;15.602;2023-04-25T05:15:53;18.50;;;8.90;;
30048;SDS011;16879;50.852;15.602;2023-04-25T05:18:22;15.35;;;7.85;;
30048;SDS011;16879;50.852;15.602;2023-04-25T05:20:56;17.25;;;7.53;;
30048;SDS011;16879;50.852;15.602;2023-04-25T05:23:25;12.13;;;7.13;;
30048;SDS011;16879;50.852;15.602;2023-04-25T05:25:53;12.43;;;7.10;;
30048;SDS011;16879;50.852;15.602;2023-04-25T05:28:24;12.50;;;7.88;;
30048;SDS011;16879;50.852;15.602;2023-04-25T05:30:50;9.68;;;6.63;;
30048;SDS011;16879;50.852;15.602;2023-04-25T05:33:22;14.52;;;9.07;;
30048;SDS011;16879;50.852;15.602;2023-04-25T05:38:31;10.93;;;7.53;;
30048;SDS011;16879;50.852;15.602;2023-04-25T05:41:00;15.57;;;8.98;;
30048;SDS011;16879;50.852;15.602;2023-04-25T05:43:32;18.35;;;9.93;;
30048;SDS011;16879;50.852;15.602;2023-04-25T05:45:58;13.18;;;7.63;;
30048;SDS011;16879;50.852;15.602;2023-04-25T05:48:26;13.63;;;9.23;;
30048;SDS011;16879;50.852;15.602;2023-04-25T05:50:54;12.40;;;7.55;;
30048;SDS011;16879;50.852;15.602;2023-04-25T05:53:28;12.32;;;7.93;;
30048;SDS011;16879;50.852;15.602;2023-04-25T05:56:00;11.05;;;7.95;;
30048;SDS011;16879;50.852;15.602;2023-04-25T05:58:32;8.68;;;6.72;;
30048;SDS011;16879;50.852;15.602;2023-04-25T06:00:59;9.02;;;4.68;;
30048;SDS011;16879;50.852;15.602;2023-04-25T06:03:25;6.38;;;5.53;;
30048;SDS011;16879;50.852;15.602;2023-04-25T06:06:21;10.80;;;5.15;;
30048;SDS011;16879;50.852;15.602;2023-04-25T06:08:47;8.30;;;4.72;;
30048;SDS011;16879;50.852;15.602;2023-04-25T06:11:17;5.47;;;3.85;;
30048;SDS011;16879;50.852;15.602;2023-04-25T06:13:43;6.55;;;4.43;;
30048;SDS011;16879;50.852;15.602;2023-04-25T06:16:22;11.35;;;4.82;;
30048;SDS011;16879;50.852;15.602;2023-04-25T06:18:59;8.77;;;4.60;;
30048;SDS011;16879;50.852;15.602;2023-04-25T06:21:43;9.10;;;4.65;;
30048;SDS011;16879;50.852;15.602;2023-04-25T06:24:15;5.95;;;4.30;;
30048;SDS011;16879;50.852;15.602;2023-04-25T06:26:54;6.25;;;3.55;;
30048;SDS011;16879;50.852;15.602;2023-04-25T06:29:47;5.00;;;3.40;;
30048;SDS011;16879;50.852;15.602;2023-04-25T06:32:20;3.95;;;3.45;;
30048;SDS011;16879;50.852;15.602;2023-04-25T06:34:55;3.67;;;3.15;;
30048;SDS011;16879;50.852;15.602;2023-04-25T06:37:31;8.18;;;3.92;;
30048;SDS011;16879;50.852;15.602;2023-04-25T06:40:13;5.45;;;3.30;;
30048;SDS011;16879;50.852;15.602;2023-04-25T06:48:26;4.43;;;3.60;;
30048;SDS011;16879;50.852;15.602;2023-04-25T06:50:52;4.25;;;3.70;;
30048;SDS011;16879;50.852;15.602;2023-04-25T06:53:24;7.22;;;3.80;;
30048;SDS011;16879;50.852;15.602;2023-04-25T06:55:53;4.13;;;3.50;;
30048;SDS011;16879;50.852;15.602;2023-04-25T06:58:35;4.85;;;3.28;;
30048;SDS011;16879;50.852;15.602;2023-04-25T07:01:04;8.57;;;3.38;;
30048;SDS011;16879;50.852;15.602;2023-04-25T07:03:43;3.60;;;3.00;;
30048;SDS011;16879;50.852;15.602;2023-04-25T07:06:10;3.53;;;2.88;;
30048;SDS011;16879;50.852;15.602;2023-04-25T07:08:36;4.03;;;2.80;;
30048;SDS011;16879;50.852;15.602;2023-04-25T07:14:04;3.25;;;2.83;;
30048;SDS011;16879;50.852;15.602;2023-04-25T07:16:45;3.72;;;3.30;;
30048;SDS011;16879;50.852;15.602;2023-04-25T07:19:11;4.75;;;2.63;;
30048;SDS011;16879;50.852;15.602;2023-04-25T07:21:38;3.17;;;2.78;;
30048;SDS011;16879;50.852;15.602;2023-04-25T07:24:05;3.28;;;2.92;;
30048;SDS011;16879;50.852;15.602;2023-04-25T07:26:31;6.70;;;4.35;;
30048;SDS011;16879;50.852;15.602;2023-04-25T07:29:07;4.65;;;3.38;;
30048;SDS011;16879;50.852;15.602;2023-04-25T07:31:49;3.70;;;2.92;;
30048;SDS011;16879;50.852;15.602;2023-04-25T07:34:24;6.18;;;3.17;;
30048;SDS011;16879;50.852;15.602;2023-04-25T07:36:51;8.38;;;3.33;;
30048;SDS011;16879;50.852;15.602;2023-04-25T07:39:22;5.13;;;2.97;;
30048;SDS011;16879;50.852;15.602;2023-04-25T07:41:56;3.72;;;2.70;;
30048;SDS011;16879;50.852;15.602;2023-04-25T07:44:24;5.10;;;2.58;;
30048;SDS011;16879;50.852;15.602;2023-04-25T07:46:51;6.43;;;2.92;;
30048;SDS011;16879;50.852;15.602;2023-04-25T07:49:26;6.30;;;2.95;;
30048;SDS011;16879;50.852;15.602;2023-04-25T07:51:54;3.22;;;2.85;;
30048;SDS011;16879;50.852;15.602;2023-04-25T07:54:22;9.70;;;3.45;;
30048;SDS011;16879;50.852;15.602;2023-04-25T07:56:48;5.90;;;3.55;;
30048;SDS011;16879;50.852;15.602;2023-04-25T07:59:15;5.43;;;3.13;;
30048;SDS011;16879;50.852;15.602;2023-04-25T08:04:42;4.18;;;3.13;;
30048;SDS011;16879;50.852;15.602;2023-04-25T08:07:20;5.68;;;3.03;;
30048;SDS011;16879;50.852;15.602;2023-04-25T08:09:47;3.00;;;2.67;;
30048;SDS011;16879;50.852;15.602;2023-04-25T08:12:13;6.72;;;3.35;;
30048;SDS011;16879;50.852;15.602;2023-04-25T08:14:42;4.75;;;3.10;;
30048;SDS011;16879;50.852;15.602;2023-04-25T08:17:09;3.72;;;3.40;;
30048;SDS011;16879;50.852;15.602;2023-04-25T08:19:36;6.07;;;4.10;;
30048;SDS011;16879;50.852;15.602;2023-04-25T08:22:05;4.53;;;3.47;;
30048;SDS011;16879;50.852;15.602;2023-04-25T08:24:45;3.72;;;2.85;;
30048;SDS011;16879;50.852;15.602;2023-04-25T08:27:12;4.35;;;3.95;;
30048;SDS011;16879;50.852;15.602;2023-04-25T08:29:41;6.38;;;3.80;;
30048;SDS011;16879;50.852;15.602;2023-04-25T08:32:11;6.82;;;3.70;;
30048;SDS011;16879;50.852;15.602;2023-04-25T08:34:37;4.97;;;3.40;;
30048;SDS011;16879;50.852;15.602;2023-04-25T08:37:07;6.93;;;3.53;;
30048;SDS011;16879;50.852;15.602;2023-04-25T08:39:39;5.32;;;3.15;;
30048;SDS011;16879;50.852;15.602;2023-04-25T08:42:07;6.13;;;3.03;;
30048;SDS011;16879;50.852;15.602;2023-04-25T08:45:00;7.32;;;3.75;;
30048;SDS011;16879;50.852;15.602;2023-04-25T08:49:54;4.25;;;3.03;;
30048;SDS011;16879;50.852;15.602;2023-04-25T08:52:30;3.65;;;3.33;;
30048;SDS011;16879;50.852;15.602;2023-04-25T08:55:00;3.05;;;2.75;;
30048;SDS011;16879;50.852;15.602;2023-04-25T08:57:37;8.35;;;3.17;;
30048;SDS011;16879;50.852;15.602;2023-04-25T09:00:06;4.57;;;2.90;;
30048;SDS011;16879;50.852;15.602;2023-04-25T09:02:46;4.15;;;2.92;;
30048;SDS011;16879;50.852;15.602;2023-04-25T09:08:29;4.15;;;3.15;;
30048;SDS011;16879;50.852;15.602;2023-04-25T09:11:09;4.10;;;3.70;;
30048;SDS011;16879;50.852;15.602;2023-04-25T09:13:35;5.28;;;3.28;;
30048;SDS011;16879;50.852;15.602;2023-04-25T09:16:05;7.82;;;3.33;;
30048;SDS011;16879;50.852;15.602;2023-04-25T09:18:32;3.40;;;3.03;;
30048;SDS011;16879;50.852;15.602;2023-04-25T09:21:11;3.83;;;3.17;;
30048;SDS011;16879;50.852;15.602;2023-04-25T09:23:54;3.47;;;2.97;;
30048;SDS011;16879;50.852;15.602;2023-04-25T09:26:21;3.35;;;2.97;;
30048;SDS011;16879;50.852;15.602;2023-04-25T09:28:50;8.13;;;2.58;;
30048;SDS011;16879;50.852;15.602;2023-04-25T09:31:45;3.58;;;2.80;;
30048;SDS011;16879;50.852;15.602;2023-04-25T09:34:23;4.13;;;3.03;;
30048;SDS011;16879;50.852;15.602;2023-04-25T09:37:04;4.75;;;2.80;;
30048;SDS011;16879;50.852;15.602;2023-04-25T09:39:32;3.35;;;2.28;;
30048;SDS011;16879;50.852;15.602;2023-04-25T09:42:04;4.95;;;2.70;;
30048;SDS011;16879;50.852;15.602;2023-04-25T09:44:36;3.53;;;2.55;;
30048;SDS011;16879;50.852;15.602;2023-04-25T09:47:09;3.17;;;2.78;;
30048;SDS011;16879;50.852;15.602;2023-04-25T09:49:38;3.60;;;2.47;;
30048;SDS011;16879;50.852;15.602;2023-04-25T09:52:16;3.67;;;2.65;;
30048;SDS011;16879;50.852;15.602;2023-04-25T09:55:14;3.97;;;2.35;;
30048;SDS011;16879;50.852;15.602;2023-04-25T09:57:53;8.02;;;3.03;;
30048;SDS011;16879;50.852;15.602;2023-04-25T10:00:22;6.47;;;2.67;;
30048;SDS011;16879;50.852;15.602;2023-04-25T10:03:17;4.60;;;2.83;;
30048;SDS011;16879;50.852;15.602;2023-04-25T10:09:37;4.35;;;3.33;;
30048;SDS011;16879;50.852;15.602;2023-04-25T10:12:22;3.20;;;2.90;;
30048;SDS011;16879;50.852;15.602;2023-04-25T10:15:22;6.38;;;2.78;;
30048;SDS011;16879;50.852;15.602;2023-04-25T10:17:51;3.42;;;2.70;;
30048;SDS011;16879;50.852;15.602;2023-04-25T10:20:28;4.32;;;2.50;;
30048;SDS011;16879;50.852;15.602;2023-04-25T10:23:13;3.35;;;2.38;;
30048;SDS011;16879;50.852;15.602;2023-04-25T10:28:58;5.70;;;2.35;;
30048;SDS011;16879;50.852;15.602;2023-04-25T10:31:48;5.47;;;2.53;;
30048;SDS011;16879;50.852;15.602;2023-04-25T10:38:11;5.22;;;2.75;;
30048;SDS011;16879;50.852;15.602;2023-04-25T10:44:04;4.55;;;2.92;;
30048;SDS011;16879;50.852;15.602;2023-04-25T10:46:30;6.45;;;3.13;;
30048;SDS011;16879;50.852;15.602;2023-04-25T10:49:08;9.15;;;3.00;;
30048;SDS011;16879;50.852;15.602;2023-04-25T10:51:49;7.30;;;4.75;;
30048;SDS011;16879;50.852;15.602;2023-04-25T10:54:25;9.30;;;3.05;;
30048;SDS011;16879;50.852;15.602;2023-04-25T11:02:14;8.45;;;3.17;;
30048;SDS011;16879;50.852;15.602;2023-04-25T11:04:46;7.63;;;3.58;;
30048;SDS011;16879;50.852;15.602;2023-04-25T11:13:19;4.60;;;2.38;;
30048;SDS011;16879;50.852;15.602;2023-04-25T11:15:51;4.72;;;2.70;;
30048;SDS011;16879;50.852;15.602;2023-04-25T11:18:17;4.13;;;2.45;;
30048;SDS011;16879;50.852;15.602;2023-04-25T11:20:48;6.28;;;2.80;;
30048;SDS011;16879;50.852;15.602;2023-04-25T11:23:39;3.38;;;3.03;;
30048;SDS011;16879;50.852;15.602;2023-04-25T11:26:12;6.80;;;2.95;;
30048;SDS011;16879;50.852;15.602;2023-04-25T11:37:13;4.32;;;2.17;;
30048;SDS011;16879;50.852;15.602;2023-04-25T11:40:02;6.97;;;2.35;;
30048;SDS011;16879;50.852;15.602;2023-04-25T11:47:54;3.65;;;1.83;;
30048;SDS011;16879;50.852;15.602;2023-04-25T11:57:26;2.10;;;1.95;;
30048;SDS011;16879;50.852;15.602;2023-04-25T12:02:57;3.72;;;2.17;;
30048;SDS011;16879;50.852;15.602;2023-04-25T12:08:29;3.67;;;2.10;;
30048;SDS011;16879;50.852;15.602;2023-04-25T12:28:21;1.98;;;1.60;;
30048;SDS011;16879;50.852;15.602;2023-04-25T12:31:19;3.58;;;2.00;;
30048;SDS011;16879;50.852;15.602;2023-04-25T13:13:49;4.60;;;2.35;;
30048;SDS011;16879;50.852;15.602;2023-04-25T13:16:26;4.63;;;2.20;;
30048;SDS011;16879;50.852;15.602;2023-04-25T14:09:34;3.20;;;2.63;;
30048;SDS011;16879;50.852;15.602;2023-04-25T14:12:07;3.83;;;2.58;;
30048;SDS011;16879;50.852;15.602;2023-04-25T14:14:34;4.40;;;2.50;;
30048;SDS011;16879;50.852;15.602;2023-04-25T14:17:28;2.92;;;2.03;;
30048;SDS011;16879;50.852;15.602;2023-04-25T14:20:06;8.23;;;2.85;;
30048;SDS011;16879;50.852;15.602;2023-04-25T14:22:48;3.90;;;2.30;;
30048;SDS011;16879;50.852;15.602;2023-04-25T14:25:40;3.13;;;2.72;;
30048;SDS011;16879;50.852;15.602;2023-04-25T14:28:30;2.80;;;2.33;;
30048;SDS011;16879;50.852;15.602;2023-04-25T14:30:58;3.55;;;2.95;;
30048;SDS011;16879;50.852;15.602;2023-04-25T14:33:38;4.85;;;2.67;;
30048;SDS011;16879;50.852;15.602;2023-04-25T14:36:14;3.92;;;3.10;;
30048;SDS011;16879;50.852;15.602;2023-04-25T14:39:16;3.33;;;3.03;;
30048;SDS011;16879;50.852;15.602;2023-04-25T14:41:44;6.55;;;2.92;;
30048;SDS011;16879;50.852;15.602;2023-04-25T14:44:32;5.28;;;3.85;;
30048;SDS011;16879;50.852;15.602;2023-04-25T14:47:35;5.85;;;4.35;;
30048;SDS011;16879;50.852;15.602;2023-04-25T14:50:01;7.78;;;5.00;;
30048;SDS011;16879;50.852;15.602;2023-04-25T14:52:53;4.30;;;3.88;;
30048;SDS011;16879;50.852;15.602;2023-04-25T14:55:24;6.30;;;4.18;;
30048;SDS011;16879;50.852;15.602;2023-04-25T14:57:50;6.18;;;4.32;;
30048;SDS011;16879;50.852;15.602;2023-04-25T15:00:16;5.80;;;4.47;;
30048;SDS011;16879;50.852;15.602;2023-04-25T15:02:44;8.25;;;4.68;;
30048;SDS011;16879;50.852;15.602;2023-04-25T15:05:10;5.35;;;4.47;;
30048;SDS011;16879;50.852;15.602;2023-04-25T15:07:37;7.97;;;4.50;;
30048;SDS011;16879;50.852;15.602;2023-04-25T15:10:04;8.15;;;6.03;;
30048;SDS011;16879;50.852;15.602;2023-04-25T15:12:52;9.95;;;5.88;;
30048;SDS011;16879;50.852;15.602;2023-04-25T15:15:18;7.60;;;5.82;;
30048;SDS011;16879;50.852;15.602;2023-04-25T15:17:44;7.45;;;5.45;;
30048;SDS011;16879;50.852;15.602;2023-04-25T15:20:12;6.32;;;4.45;;
30048;SDS011;16879;50.852;15.602;2023-04-25T15:22:39;6.25;;;4.03;;
30048;SDS011;16879;50.852;15.602;2023-04-25T15:25:06;9.57;;;3.58;;
30048;SDS011;16879;50.852;15.602;2023-04-25T15:27:39;4.82;;;3.97;;
30048;SDS011;16879;50.852;15.602;2023-04-25T15:30:08;5.22;;;3.90;;
30048;SDS011;16879;50.852;15.602;2023-04-25T15:32:37;10.52;;;5.63;;
30048;SDS011;16879;50.852;15.602;2023-04-25T15:35:06;8.73;;;4.57;;
30048;SDS011;16879;50.852;15.602;2023-04-25T15:37:32;8.68;;;4.68;;
30048;SDS011;16879;50.852;15.602;2023-04-25T15:40:14;9.80;;;4.07;;
30048;SDS011;16879;50.852;15.602;2023-04-25T15:42:45;13.57;;;10.02;;
30048;SDS011;16879;50.852;15.602;2023-04-25T15:45:16;17.10;;;11.32;;
30048;SDS011;16879;50.852;15.602;2023-04-25T15:47:43;12.95;;;8.88;;
30048;SDS011;16879;50.852;15.602;2023-04-25T15:50:10;10.45;;;9.07;;
30048;SDS011;16879;50.852;15.602;2023-04-25T15:52:43;12.65;;;9.57;;
30048;SDS011;16879;50.852;15.602;2023-04-25T15:55:21;11.93;;;8.50;;
30048;SDS011;16879;50.852;15.602;2023-04-25T15:58:00;19.90;;;13.35;;
30048;SDS011;16879;50.852;15.602;2023-04-25T16:00:29;12.23;;;8.25;;
30048;SDS011;16879;50.852;15.602;2023-04-25T16:02:55;8.55;;;6.03;;
30048;SDS011;16879;50.852;15.602;2023-04-25T16:05:23;18.50;;;7.68;;
30048;SDS011;16879;50.852;15.602;2023-04-25T16:07:50;11.20;;;7.85;;
30048;SDS011;16879;50.852;15.602;2023-04-25T16:10:19;13.35;;;7.30;;
30048;SDS011;16879;50.852;15.602;2023-04-25T16:12:47;9.10;;;4.65;;
30048;SDS011;16879;50.852;15.602;2023-04-25T16:15:16;14.20;;;10.20;;
30048;SDS011;16879;50.852;15.602;2023-04-25T16:17:42;15.60;;;8.00;;
30048;SDS011;16879;50.852;15.602;2023-04-25T16:20:09;8.95;;;4.65;;
30048;SDS011;16879;50.852;15.602;2023-04-25T16:22:39;9.02;;;4.30;;
30048;SDS011;16879;50.852;15.602;2023-04-25T16:25:06;13.65;;;6.07;;
30048;SDS011;16879;50.852;15.602;2023-04-25T16:27:36;14.23;;;4.60;;
30048;SDS011;16879;50.852;15.602;2023-04-25T16:30:04;8.55;;;5.28;;
30048;SDS011;16879;50.852;15.602;2023-04-25T16:32:30;13.43;;;6.68;;
30048;SDS011;16879;50.852;15.602;2023-04-25T16:34:56;9.75;;;5.30;;
30048;SDS011;16879;50.852;15.602;2023-04-25T16:37:25;12.52;;;5.40;;
30048;SDS011;16879;50.852;15.602;2023-04-25T16:39:51;9.25;;;5.90;;
30048;SDS011;16879;50.852;15.602;2023-04-25T16:42:22;14.48;;;6.60;;
30048;SDS011;16879;50.852;15.602;2023-04-25T16:44:50;14.93;;;7.70;;
30048;SDS011;16879;50.852;15.602;2023-04-25T16:47:16;11.85;;;7.18;;
30048;SDS011;16879;50.852;15.602;2023-04-25T16:49:44;7.88;;;5.45;;
30048;SDS011;16879;50.852;15.602;2023-04-25T16:52:11;14.13;;;5.20;;
30048;SDS011;16879;50.852;15.602;2023-04-25T16:54:45;14.38;;;6.03;;
30048;SDS011;16879;50.852;15.602;2023-04-25T16:57:11;8.48;;;4.20;;
30048;SDS011;16879;50.852;15.602;2023-04-25T16:59:38;12.73;;;6.10;;
30048;SDS011;16879;50.852;15.602;2023-04-25T17:02:14;13.18;;;4.85;;
30048;SDS011;16879;50.852;15.602;2023-04-25T17:05:04;11.73;;;4.13;;
30048;SDS011;16879;50.852;15.602;2023-04-25T17:07:37;15.63;;;5.82;;
30048;SDS011;16879;50.852;15.602;2023-04-25T17:10:04;6.20;;;3.97;;
30048;SDS011;16879;50.852;15.602;2023-04-25T17:12:30;13.68;;;5.28;;
30048;SDS011;16879;50.852;15.602;2023-04-25T17:14:59;9.93;;;5.78;;
30048;SDS011;16879;50.852;15.602;2023-04-25T17:17:25;12.77;;;4.95;;
30048;SDS011;16879;50.852;15.602;2023-04-25T17:19:53;9.65;;;5.82;;
30048;SDS011;16879;50.852;15.602;2023-04-25T17:22:19;8.52;;;4.20;;
30048;SDS011;16879;50.852;15.602;2023-04-25T17:24:46;13.38;;;4.80;;
30048;SDS011;16879;50.852;15.602;2023-04-25T17:27:12;11.60;;;5.28;;
30048;SDS011;16879;50.852;15.602;2023-04-25T17:29:40;15.98;;;5.50;;
30048;SDS011;16879;50.852;15.602;2023-04-25T17:32:06;13.35;;;6.15;;
30048;SDS011;16879;50.852;15.602;2023-04-25T17:34:35;16.90;;;5.18;;
30048;SDS011;16879;50.852;15.602;2023-04-25T17:37:08;9.48;;;4.53;;
30048;SDS011;16879;50.852;15.602;2023-04-25T17:39:50;10.38;;;5.47;;
30048;SDS011;16879;50.852;15.602;2023-04-25T17:42:17;15.02;;;4.80;;
30048;SDS011;16879;50.852;15.602;2023-04-25T17:44:44;11.73;;;7.15;;
30048;SDS011;16879;50.852;15.602;2023-04-25T17:47:15;30.17;;;13.35;;
30048;SDS011;16879;50.852;15.602;2023-04-25T17:49:42;32.50;;;15.73;;
30048;SDS011;16879;50.852;15.602;2023-04-25T17:52:29;16.30;;;9.07;;
30048;SDS011;16879;50.852;15.602;2023-04-25T17:55:10;18.10;;;7.60;;
30048;SDS011;16879;50.852;15.602;2023-04-25T17:57:38;14.52;;;5.75;;